Time;durP1;ratioP1;P1;durP2;ratioP2;P2;SDS_P1;SDS_P2;PMS_P1;PMS_P2;Temp;Humidity;BMP_temperature;BMP_pressure;BME280_temperature;BME280_humidity;BME280_pressure;Samples;Min_cycle;Max_cycle;Signal;HPM_P1;HPM_P2
2022/10/20 00:00:11;;;;;;;21.17;6.25;;;19.00;80.30;;;;;;4979812;28;20034;-78
2022/10/20 00:02:36;;;;;;;16.83;6.60;;;19.00;80.20;;;;;;4986459;28;20042;-79
2022/10/20 00:05:02;;;;;;;15.07;5.95;;;19.00;80.20;;;;;;4991289;28;20433;-79
2022/10/20 00:07:28;;;;;;;11.57;5.25;;;19.00;80.20;;;;;;4978959;28;20023;-79
2022/10/20 00:09:54;;;;;;;17.27;6.85;;;19.10;80.10;;;;;;4979924;28;20072;-78
2022/10/20 00:12:19;;;;;;;18.52;6.10;;;19.00;79.90;;;;;;4981218;28;20027;-79
2022/10/20 00:14:45;;;;;;;19.60;6.72;;;18.90;80.30;;;;;;4998848;28;20050;-78
2022/10/20 00:17:11;;;;;;;12.68;5.28;;;18.90;80.40;;;;;;4998980;28;20023;-79
2022/10/20 00:19:36;;;;;;;16.50;5.80;;;18.90;80.40;;;;;;4998507;28;20362;-78
2022/10/20 00:22:02;;;;;;;20.17;6.32;;;18.90;80.30;;;;;;5001454;28;20028;-78
2022/10/20 00:24:27;;;;;;;18.50;7.05;;;19.00;80.20;;;;;;5017613;28;20030;-78
2022/10/20 00:26:53;;;;;;;13.60;6.72;;;18.90;80.20;;;;;;5008988;28;20037;-79
2022/10/20 00:29:19;;;;;;;20.67;6.05;;;18.90;80.30;;;;;;4998771;28;20039;-78
2022/10/20 00:31:44;;;;;;;14.05;5.60;;;18.90;80.20;;;;;;4998640;28;20073;-78
2022/10/20 00:34:10;;;;;;;19.45;5.85;;;18.90;80.30;;;;;;4998298;28;20512;-79
2022/10/20 00:36:35;;;;;;;17.85;6.78;;;18.90;80.50;;;;;;4998756;28;20049;-79
2022/10/20 00:39:04;;;;;;;18.33;5.45;;;18.80;80.60;;;;;;5008907;28;20058;-78
2022/10/20 00:41:32;;;;;;;12.63;5.97;;;18.70;81.00;;;;;;4979266;28;20045;-79
2022/10/20 00:44:18;;;;;;;19.65;6.10;;;18.80;81.10;;;;;;4978814;28;20037;-79
2022/10/20 00:46:44;;;;;;;12.23;5.25;;;18.70;81.00;;;;;;4978637;28;20027;-79
2022/10/20 00:49:24;;;;;;;13.77;6.10;;;18.60;81.00;;;;;;4978984;28;20481;-78
2022/10/20 00:51:52;;;;;;;15.85;6.10;;;18.60;81.30;;;;;;4994873;28;20034;-79
2022/10/20 00:54:32;;;;;;;16.88;5.97;;;18.50;81.60;;;;;;4998290;28;20053;-79
2022/10/20 00:56:59;;;;;;;19.20;6.78;;;18.50;81.80;;;;;;4997729;28;20034;-79
2022/10/20 00:59:30;;;;;;;15.38;6.28;;;18.50;81.50;;;;;;4998302;28;20023;-79
2022/10/20 01:01:56;;;;;;;15.75;6.00;;;18.60;81.60;;;;;;4984788;28;20030;-78
2022/10/20 01:04:23;;;;;;;12.85;5.78;;;18.50;81.60;;;;;;4978755;28;20066;-79
2022/10/20 01:06:49;;;;;;;13.70;5.75;;;18.50;81.50;;;;;;4993534;28;20027;-79
2022/10/20 01:09:15;;;;;;;13.43;6.03;;;18.60;81.30;;;;;;4995980;28;20031;-78
2022/10/20 01:12:07;;;;;;;15.25;5.80;;;18.50;81.40;;;;;;4978720;28;20058;-78
2022/10/20 01:14:53;;;;;;;18.27;7.18;;;18.50;81.40;;;;;;4981595;28;20054;-79
2022/10/20 01:17:42;;;;;;;21.10;6.07;;;18.50;81.40;;;;;;5012715;28;20057;-78
2022/10/20 01:20:14;;;;;;;18.08;5.78;;;18.30;81.70;;;;;;4997313;28;20579;-78
2022/10/20 01:23:06;;;;;;;14.43;5.88;;;18.40;82.00;;;;;;5019933;28;20026;-78
2022/10/20 01:25:44;;;;;;;18.77;6.75;;;18.40;81.80;;;;;;5032233;28;20064;-78
2022/10/20 01:28:31;;;;;;;15.05;6.38;;;18.40;81.70;;;;;;5016258;28;20037;-78
2022/10/20 01:31:00;;;;;;;17.30;6.25;;;18.40;81.80;;;;;;5004948;28;20058;-78
2022/10/20 01:33:46;;;;;;;20.95;6.07;;;18.40;81.70;;;;;;4997615;28;20084;-78
2022/10/20 01:36:19;;;;;;;16.38;6.03;;;18.60;81.50;;;;;;4997075;28;20069;-79
2022/10/20 01:38:57;;;;;;;14.27;6.47;;;18.60;81.30;;;;;;4975736;28;20031;-79
2022/10/20 01:41:42;;;;;;;12.88;5.80;;;18.60;81.20;;;;;;4978030;28;20030;-78
2022/10/20 01:44:11;;;;;;;17.30;6.53;;;18.60;81.20;;;;;;4990497;28;20026;-79
2022/10/20 01:46:39;;;;;;;12.73;5.57;;;18.50;81.20;;;;;;4995112;28;20030;-78
2022/10/20 01:49:06;;;;;;;15.70;6.90;;;18.40;81.50;;;;;;4976455;28;20094;-78
2022/10/20 01:51:32;;;;;;;12.63;5.63;;;18.40;81.50;;;;;;4977862;28;20413;-78
2022/10/20 01:53:58;;;;;;;17.35;6.78;;;18.40;81.50;;;;;;4982634;28;20102;-78
2022/10/20 01:56:47;;;;;;;15.30;7.15;;;18.40;81.70;;;;;;4995786;28;20117;-79
2022/10/20 01:59:28;;;;;;;22.08;7.05;;;18.40;81.70;;;;;;4986228;28;20022;-78
2022/10/20 02:02:21;;;;;;;14.68;5.90;;;18.40;81.40;;;;;;4989048;28;20033;-79
2022/10/20 02:05:12;;;;;;;18.80;6.28;;;18.40;81.70;;;;;;4996563;28;20554;-78
2022/10/20 02:07:40;;;;;;;22.02;7.65;;;18.40;81.50;;;;;;4997002;28;20038;-79
2022/10/20 02:10:18;;;;;;;16.35;7.35;;;18.50;81.50;;;;;;4996452;28;20027;-78
2022/10/20 02:12:49;;;;;;;14.30;6.13;;;18.50;81.60;;;;;;4995374;28;20109;-79
2022/10/20 02:15:19;;;;;;;18.98;6.22;;;18.50;81.30;;;;;;4996676;28;20065;-79
2022/10/20 02:17:46;;;;;;;;;;;18.50;81.40;;;;;;4987245;28;20122;-78
2022/10/20 02:20:12;;;;;;;12.82;6.13;;;18.50;81.40;;;;;;4976979;28;19906;-79
2022/10/20 02:22:39;;;;;;;15.50;5.97;;;18.60;81.30;;;;;;5006179;28;20022;-79
2022/10/20 02:25:06;;;;;;;14.63;6.95;;;18.60;81.30;;;;;;5002130;28;20053;-78
2022/10/20 02:27:36;;;;;;;15.45;6.78;;;18.50;81.40;;;;;;4977141;28;20030;-79
2022/10/20 02:30:06;;;;;;;;;;;18.40;81.90;;;;;;4976034;28;20037;-78
2022/10/20 02:32:33;;;;;;;17.92;5.78;;;18.30;82.00;;;;;;4976632;28;20063;-78
2022/10/20 02:34:59;;;;;;;20.00;7.03;;;18.30;82.00;;;;;;4988262;28;20106;-78
2022/10/20 02:37:25;;;;;;;17.88;6.82;;;18.30;82.20;;;;;;5011531;28;20050;-79
2022/10/20 02:39:50;;;;;;;13.00;6.82;;;18.30;82.20;;;;;;4995820;28;20018;-79
2022/10/20 02:42:16;;;;;;;13.98;7.07;;;18.30;82.10;;;;;;4996532;28;20031;-78
2022/10/20 02:44:42;;;;;;;16.40;6.45;;;18.30;82.00;;;;;;4995492;28;20018;-78
2022/10/20 02:47:08;;;;;;;22.83;7.10;;;18.30;81.90;;;;;;4991682;28;20078;-79
2022/10/20 02:49:33;;;;;;;17.17;6.70;;;18.30;82.00;;;;;;4976848;28;20019;-78
2022/10/20 02:51:59;;;;;;;23.35;7.50;;;18.40;81.90;;;;;;4976447;28;20030;-79
2022/10/20 02:54:27;;;;;;;21.98;7.10;;;18.30;81.80;;;;;;4976826;28;20029;-79
2022/10/20 02:56:54;;;;;;;15.13;6.10;;;18.40;81.70;;;;;;4976844;28;20023;-78
2022/10/20 02:59:19;;;;;;;15.18;6.05;;;18.30;81.70;;;;;;4976998;28;20027;-78
2022/10/20 03:01:45;;;;;;;23.83;7.07;;;18.30;81.60;;;;;;4975375;28;20449;-78
2022/10/20 03:04:11;;;;;;;14.02;6.50;;;18.30;81.50;;;;;;4977088;28;20022;-78
2022/10/20 03:06:37;;;;;;;14.45;5.88;;;18.20;81.70;;;;;;4975352;28;20034;-78
2022/10/20 03:09:03;;;;;;;14.70;6.93;;;18.20;81.80;;;;;;4975594;28;20028;-78
2022/10/20 03:11:32;;;;;;;18.70;6.75;;;18.20;82.10;;;;;;4993235;28;20038;-78
2022/10/20 03:13:57;;;;;;;19.73;7.22;;;18.30;82.00;;;;;;5010317;28;20053;-78
2022/10/20 03:16:23;;;;;;;19.77;6.55;;;18.20;82.10;;;;;;4995820;28;20109;-78
2022/10/20 03:18:49;;;;;;;19.55;6.57;;;18.20;82.10;;;;;;4994599;28;20113;-79
2022/10/20 03:21:14;;;;;;;15.40;6.43;;;18.20;82.20;;;;;;4995758;28;20038;-79
2022/10/20 03:23:40;;;;;;;20.00;6.95;;;18.10;82.10;;;;;;4997682;28;20532;-79
2022/10/20 03:26:07;;;;;;;19.30;7.10;;;18.00;82.40;;;;;;4995833;28;20405;-79
2022/10/20 03:28:33;;;;;;;15.65;6.68;;;18.10;82.40;;;;;;4994419;28;20520;-78
2022/10/20 03:30:58;;;;;;;20.48;6.65;;;18.00;82.60;;;;;;4995709;28;20030;-79
2022/10/20 03:33:24;;;;;;;18.95;6.97;;;17.90;82.90;;;;;;4998426;28;20049;-79
2022/10/20 03:35:50;;;;;;;14.82;6.03;;;17.80;83.10;;;;;;4999780;28;20497;-79
2022/10/20 03:38:16;;;;;;;14.70;6.10;;;17.80;83.30;;;;;;4999162;28;20034;-79
2022/10/20 03:40:42;;;;;;;20.92;6.30;;;17.80;83.50;;;;;;4999682;28;20050;-79
2022/10/20 03:43:07;;;;;;;14.23;6.30;;;17.80;83.60;;;;;;4999081;28;20030;-79
2022/10/20 03:45:35;;;;;;;13.80;6.18;;;17.80;83.40;;;;;;4999648;28;20030;-79
2022/10/20 03:48:01;;;;;;;16.08;5.97;;;17.80;83.70;;;;;;4998574;28;20034;-79
2022/10/20 03:50:27;;;;;;;14.48;6.22;;;17.70;83.50;;;;;;4999343;28;20767;-79
2022/10/20 03:52:52;;;;;;;20.45;6.82;;;17.70;83.70;;;;;;4998918;28;20033;-78
2022/10/20 03:55:19;;;;;;;17.77;6.85;;;17.80;83.80;;;;;;4999432;28;20096;-79
2022/10/20 03:57:44;;;;;;;12.55;4.93;;;17.80;83.60;;;;;;4998836;28;20038;-78
2022/10/20 04:00:11;;;;;;;17.70;4.80;;;17.80;83.30;;;;;;4999017;28;20393;-79
2022/10/20 04:02:44;;;;;;;17.70;5.40;;;17.80;82.90;;;;;;4998943;28;20565;-79
2022/10/20 04:05:16;;;;;;;13.95;5.00;;;17.80;83.20;;;;;;4999276;28;20673;-79
2022/10/20 04:07:42;;;;;;;12.98;4.50;;;17.90;83.00;;;;;;4997565;28;20485;-78
2022/10/20 04:10:08;;;;;;;12.75;4.30;;;17.90;82.70;;;;;;4999264;28;20496;-78
2022/10/20 04:12:34;;;;;;;11.50;4.38;;;17.90;82.60;;;;;;4998584;28;20034;-79
2022/10/20 04:15:00;;;;;;;18.10;3.35;;;17.80;82.80;;;;;;4998527;28;20429;-78
2022/10/20 04:17:26;;;;;;;9.80;4.72;;;17.80;82.70;;;;;;4998842;28;20033;-79
2022/10/20 04:19:51;;;;;;;13.48;4.30;;;17.80;82.70;;;;;;4997566;28;20143;-78
2022/10/20 04:22:17;;;;;;;8.95;2.65;;;17.90;82.50;;;;;;5002850;28;20025;-80
2022/10/20 04:24:42;;;;;;;9.57;3.25;;;17.80;82.00;;;;;;5011298;28;20026;-79
2022/10/20 04:27:08;;;;;;;10.82;3.65;;;17.90;82.20;;;;;;4998748;28;20026;-79
2022/10/20 04:29:34;;;;;;;9.63;3.42;;;17.80;82.10;;;;;;4998459;28;20054;-78
2022/10/20 04:31:59;;;;;;;9.65;3.08;;;17.80;82.20;;;;;;4990806;28;20094;-79
2022/10/20 04:34:25;;;;;;;10.70;3.50;;;17.70;82.10;;;;;;4982796;28;20041;-80
2022/10/20 04:36:51;;;;;;;8.77;2.42;;;17.70;82.20;;;;;;4994909;28;20026;-80
2022/10/20 04:39:16;;;;;;;5.13;2.70;;;17.70;82.10;;;;;;4978510;28;20034;-80
2022/10/20 04:41:42;;;;;;;7.88;2.70;;;17.70;82.10;;;;;;4990765;28;20026;-80
2022/10/20 04:44:09;;;;;;;5.70;1.95;;;17.70;81.90;;;;;;4996045;28;20133;-81
2022/10/20 04:46:34;;;;;;;6.72;2.85;;;17.70;81.80;;;;;;4997243;28;20062;-81
2022/10/20 04:49:00;;;;;;;7.80;2.17;;;17.70;81.60;;;;;;4997968;28;20081;-76
2022/10/20 04:51:26;;;;;;;8.15;3.22;;;17.70;81.80;;;;;;4998263;28;20030;-77
2022/10/20 04:53:52;;;;;;;4.65;1.75;;;17.80;81.70;;;;;;4998124;28;20038;-77
2022/10/20 04:56:20;;;;;;;7.90;2.50;;;17.80;81.10;;;;;;4993441;28;20509;-80
2022/10/20 04:58:54;;;;;;;8.23;2.42;;;17.90;81.00;;;;;;4977377;28;20118;-76
2022/10/20 05:01:21;;;;;;;9.43;2.05;;;17.90;81.00;;;;;;4985800;28;20030;-78
2022/10/20 05:03:47;;;;;;;8.02;2.15;;;18.00;80.80;;;;;;4992814;28;20663;-78
2022/10/20 05:06:30;;;;;;;8.00;2.42;;;18.00;80.80;;;;;;4979138;28;20061;-78
2022/10/20 05:08:58;;;;;;;4.97;2.13;;;18.00;80.70;;;;;;4977641;28;20035;-79
2022/10/20 05:11:26;;;;;;;3.30;2.00;;;18.10;80.60;;;;;;4984853;28;20046;-79
2022/10/20 05:13:52;;;;;;;2.22;1.13;;;18.00;80.50;;;;;;4981889;28;20054;-77
2022/10/20 05:16:23;;;;;;;8.10;1.33;;;17.90;79.30;;;;;;4991600;28;20030;-78
2022/10/20 05:18:51;;;;;;;5.03;0.90;;;17.80;78.80;;;;;;4992777;28;20031;-81
2022/10/20 05:21:22;;;;;;;2.55;0.80;;;17.70;79.00;;;;;;4979429;28;20030;-77
2022/10/20 05:23:48;;;;;;;1.77;1.10;;;17.60;79.30;;;;;;4982486;28;20389;-77
2022/10/20 05:26:18;;;;;;;4.55;0.85;;;17.60;79.20;;;;;;4987142;28;20031;-78
2022/10/20 05:28:48;;;;;;;2.28;0.70;;;17.50;79.30;;;;;;4987139;28;20057;-77
2022/10/20 05:31:15;;;;;;;1.50;0.52;;;17.50;79.00;;;;;;4985420;28;20418;-77
2022/10/20 05:33:46;;;;;;;2.50;0.73;;;17.40;78.90;;;;;;4987423;28;20030;-77
2022/10/20 05:36:14;;;;;;;1.48;0.50;;;17.40;78.80;;;;;;4987169;28;20023;-78
2022/10/20 05:38:40;;;;;;;4.70;0.80;;;17.30;78.90;;;;;;4984741;28;20062;-78
2022/10/20 05:41:14;;;;;;;3.95;0.85;;;17.30;78.40;;;;;;4984229;28;20053;-77
2022/10/20 05:43:40;;;;;;;2.13;0.50;;;17.30;78.30;;;;;;4985250;28;20527;-79
2022/10/20 05:46:07;;;;;;;1.67;0.55;;;17.30;78.00;;;;;;4987617;28;20015;-79
2022/10/20 05:48:33;;;;;;;2.97;0.60;;;17.20;78.10;;;;;;4985902;28;20027;-78
2022/10/20 05:51:08;;;;;;;2.25;0.55;;;17.20;77.90;;;;;;4987844;28;20050;-79
2022/10/20 05:53:34;;;;;;;2.22;0.43;;;17.20;78.10;;;;;;4986210;28;20121;-79
2022/10/20 05:56:21;;;;;;;1.27;0.52;;;17.20;78.40;;;;;;4987637;28;20547;-79
2022/10/20 05:58:47;;;;;;;2.90;0.70;;;17.10;78.70;;;;;;4987773;28;20081;-80
2022/10/20 06:01:22;;;;;;;0.55;0.30;;;17.10;78.70;;;;;;5000724;28;20082;-79
2022/10/20 06:03:48;;;;;;;2.25;0.50;;;17.10;78.70;;;;;;4993255;28;20500;-79
2022/10/20 06:06:14;;;;;;;1.63;0.50;;;17.10;78.80;;;;;;4993508;28;20509;-79
2022/10/20 06:08:40;;;;;;;2.35;0.40;;;17.10;78.40;;;;;;4996130;28;20026;-79
2022/10/20 06:11:09;;;;;;;3.90;0.50;;;17.00;78.60;;;;;;4994358;28;20033;-78
2022/10/20 06:13:35;;;;;;;0.80;0.40;;;17.00;78.50;;;;;;4993794;28;20040;-78
2022/10/20 06:16:12;;;;;;;2.08;0.50;;;17.00;78.50;;;;;;4995840;28;20030;-79
2022/10/20 06:18:38;;;;;;;1.85;0.38;;;17.00;78.30;;;;;;4994518;28;20037;-79
2022/10/20 06:21:08;;;;;;;2.20;0.40;;;16.90;78.20;;;;;;4995537;28;20130;-77
2022/10/20 06:23:34;;;;;;;4.00;0.80;;;16.90;78.30;;;;;;4990700;28;20589;-77
2022/10/20 06:26:09;;;;;;;0.85;0.40;;;16.90;78.20;;;;;;4977289;28;20339;-77
2022/10/20 06:28:36;;;;;;;3.47;0.73;;;16.80;78.00;;;;;;4976292;28;20034;-77
2022/10/20 06:31:23;;;;;;;1.85;0.50;;;16.70;78.30;;;;;;4977343;28;20085;-77
2022/10/20 06:33:49;;;;;;;2.15;0.68;;;16.60;78.50;;;;;;4992614;28;20030;-77
2022/10/20 06:36:16;;;;;;;3.55;0.77;;;16.60;78.40;;;;;;4996931;28;20038;-77
2022/10/20 06:38:43;;;;;;;2.00;0.63;;;16.60;78.50;;;;;;4978666;28;20038;-77
2022/10/20 06:41:11;;;;;;;3.05;0.50;;;16.50;78.50;;;;;;4976164;28;20089;-77
2022/10/20 06:43:37;;;;;;;2.70;0.70;;;16.50;78.60;;;;;;4977267;28;20033;-77
2022/10/20 06:46:05;;;;;;;0.60;0.30;;;16.50;78.30;;;;;;4978503;28;20098;-77
2022/10/20 06:48:31;;;;;;;5.85;0.90;;;16.40;78.70;;;;;;4996720;28;20030;-77
2022/10/20 06:51:02;;;;;;;2.65;0.40;;;16.40;78.40;;;;;;4996702;28;20157;-77
2022/10/20 06:53:28;;;;;;;;;;;16.40;78.70;;;;;;4997030;28;20093;-77
2022/10/20 06:56:06;;;;;;;2.47;0.90;;;16.40;78.90;;;;;;5011080;28;19940;-77
2022/10/20 06:58:33;;;;;;;2.03;0.65;;;16.30;78.70;;;;;;4996389;28;20026;-77
2022/10/20 07:01:03;;;;;;;1.85;0.60;;;16.30;78.90;;;;;;4996465;28;20550;-77
2022/10/20 07:03:30;;;;;;;1.25;0.55;;;16.30;79.10;;;;;;5010971;28;20026;-77
2022/10/20 07:05:56;;;;;;;2.08;0.50;;;16.30;79.00;;;;;;4995468;28;20382;-77
2022/10/20 07:08:22;;;;;;;2.22;0.63;;;16.30;79.10;;;;;;4995987;28;20560;-77
2022/10/20 07:11:07;;;;;;;2.05;0.60;;;16.30;78.90;;;;;;4996261;28;20046;-78
2022/10/20 07:13:34;;;;;;;0.68;0.47;;;16.20;78.80;;;;;;4995739;28;20466;-77
2022/10/20 07:16:00;;;;;;;2.10;1.00;;;16.00;79.50;;;;;;4996356;28;20035;-77
2022/10/20 07:18:28;;;;;;;1.00;0.50;;;16.10;79.40;;;;;;4996362;28;20061;-77
2022/10/20 07:21:03;;;;;;;3.35;0.75;;;16.20;79.30;;;;;;4996318;28;20049;-77
2022/10/20 07:23:30;;;;;;;2.35;0.80;;;16.20;79.20;;;;;;4994739;28;20030;-77
2022/10/20 07:26:10;;;;;;;2.47;0.93;;;16.20;79.20;;;;;;4975532;28;20027;-77
2022/10/20 07:28:38;;;;;;;1.42;0.80;;;16.30;79.10;;;;;;4977003;28;20023;-77
2022/10/20 07:31:09;;;;;;;1.88;0.90;;;16.30;78.90;;;;;;4977154;28;20039;-77
2022/10/20 07:33:35;;;;;;;2.97;0.90;;;16.30;78.80;;;;;;4976774;28;20117;-77
2022/10/20 07:36:09;;;;;;;3.42;0.80;;;16.70;78.20;;;;;;4978328;28;20067;-77
2022/10/20 07:38:34;;;;;;;1.52;0.70;;;16.70;78.10;;;;;;4994818;28;20133;-77
2022/10/20 07:41:01;;;;;;;2.28;0.80;;;16.60;78.20;;;;;;4996144;28;20073;-77
2022/10/20 07:43:27;;;;;;;6.90;1.05;;;16.50;78.40;;;;;;4990012;28;20026;-77
2022/10/20 07:45:53;;;;;;;2.28;0.93;;;16.40;78.60;;;;;;4983670;28;20444;-77
2022/10/20 07:48:18;;;;;;;2.05;0.77;;;16.30;79.10;;;;;;4995818;28;20039;-77
2022/10/20 07:50:44;;;;;;;1.58;0.95;;;16.30;79.10;;;;;;4996066;28;20599;-77
2022/10/20 07:53:09;;;;;;;3.78;0.70;;;16.30;79.10;;;;;;4995562;28;20027;-77
2022/10/20 07:55:35;;;;;;;4.40;1.10;;;16.30;79.10;;;;;;4995983;28;20041;-78
2022/10/20 07:58:00;;;;;;;1.20;0.73;;;16.30;79.20;;;;;;4995529;28;20034;-76
2022/10/20 08:00:26;;;;;;;1.88;0.80;;;16.30;79.20;;;;;;4995418;28;20049;-77
2022/10/20 08:02:52;;;;;;;3.65;1.38;;;16.30;79.30;;;;;;4995840;28;20031;-77
2022/10/20 08:05:17;;;;;;;4.75;1.13;;;16.30;79.40;;;;;;4995405;28;20027;-77
2022/10/20 08:07:43;;;;;;;1.42;0.60;;;16.30;79.60;;;;;;4996024;28;20401;-77
2022/10/20 08:10:09;;;;;;;1.48;0.75;;;16.30;79.80;;;;;;4995611;28;20037;-77
2022/10/20 08:12:34;;;;;;;1.30;0.68;;;16.40;79.90;;;;;;4986769;28;20058;-77
2022/10/20 08:15:00;;;;;;;2.13;0.80;;;16.50;79.80;;;;;;4976201;28;20394;-77
2022/10/20 08:17:26;;;;;;;3.00;0.90;;;16.50;79.70;;;;;;4976182;28;20031;-77
2022/10/20 08:19:52;;;;;;;4.57;0.63;;;16.60;79.70;;;;;;4998704;28;20779;-77
2022/10/20 08:22:18;;;;;;;2.65;0.65;;;16.70;79.50;;;;;;4999083;28;20041;-77
2022/10/20 08:24:44;;;;;;;1.30;0.60;;;16.60;79.00;;;;;;5018877;28;20037;-77
2022/10/20 08:27:10;;;;;;;2.75;0.70;;;16.70;79.10;;;;;;5030164;28;20026;-77
2022/10/20 08:29:36;;;;;;;2.70;0.70;;;16.80;79.10;;;;;;4979739;28;20115;-77
2022/10/20 08:32:02;;;;;;;2.78;0.77;;;16.80;79.00;;;;;;4979827;28;20495;-77
2022/10/20 08:34:28;;;;;;;2.40;0.80;;;16.90;78.80;;;;;;4979619;28;20595;-77
2022/10/20 08:36:54;;;;;;;1.40;0.88;;;16.80;78.90;;;;;;4981776;28;20201;-77
2022/10/20 08:39:19;;;;;;;3.05;0.52;;;16.80;79.20;;;;;;4998994;28;20034;-77
2022/10/20 08:41:48;;;;;;;1.00;0.60;;;16.80;78.50;;;;;;4998971;28;20085;-77
2022/10/20 08:44:34;;;;;;;1.63;0.88;;;16.80;79.20;;;;;;4998486;28;20031;-77
2022/10/20 08:47:01;;;;;;;2.28;0.60;;;16.80;79.60;;;;;;4998860;28;20094;-77
2022/10/20 08:49:30;;;;;;;0.65;0.50;;;16.70;79.60;;;;;;4997547;28;20030;-77
2022/10/20 08:51:57;;;;;;;2.72;0.63;;;16.70;79.50;;;;;;4998333;28;20444;-77
2022/10/20 08:54:23;;;;;;;5.00;0.80;;;16.70;79.40;;;;;;4998781;28;20027;-77
2022/10/20 08:56:49;;;;;;;1.58;0.57;;;16.80;79.80;;;;;;4998658;28;20053;-77
2022/10/20 08:59:28;;;;;;;2.47;0.60;;;16.80;79.80;;;;;;4998149;28;20042;-77
2022/10/20 09:01:56;;;;;;;0.83;0.60;;;16.80;79.60;;;;;;4998551;28;20015;-77
2022/10/20 09:04:33;;;;;;;1.40;0.60;;;16.80;79.60;;;;;;4998506;28;20110;-77
2022/10/20 09:07:04;;;;;;;1.42;0.70;;;16.80;79.70;;;;;;4979711;28;20110;-77
2022/10/20 09:09:32;;;;;;;1.00;0.50;;;16.90;80.30;;;;;;4979002;28;20023;-77
2022/10/20 09:12:12;;;;;;;1.35;0.70;;;17.00;79.50;;;;;;4993803;28;20042;-78
2022/10/20 09:14:38;;;;;;;1.50;0.55;;;17.10;79.70;;;;;;5013371;28;20050;-77
2022/10/20 09:17:10;;;;;;;4.30;0.85;;;17.20;79.40;;;;;;4998180;28;20045;-77
2022/10/20 09:19:35;;;;;;;2.47;0.75;;;17.20;79.60;;;;;;4998287;28;20026;-77
2022/10/20 09:22:04;;;;;;;2.28;0.70;;;17.30;79.50;;;;;;4993953;28;20035;-78
2022/10/20 09:24:31;;;;;;;2.15;0.60;;;17.20;79.20;;;;;;5017072;28;20473;-77
2022/10/20 09:27:22;;;;;;;1.75;0.70;;;17.30;79.40;;;;;;4997710;28;20023;-78
2022/10/20 09:29:48;;;;;;;2.75;0.80;;;17.30;78.10;;;;;;4997183;28;20022;-77
2022/10/20 09:32:30;;;;;;;1.20;0.77;;;17.40;78.60;;;;;;4978567;28;20073;-77
2022/10/20 09:35:14;;;;;;;1.30;0.77;;;17.40;78.10;;;;;;4979092;28;20030;-77
2022/10/20 09:37:40;;;;;;;1.50;0.68;;;17.50;78.30;;;;;;4978561;28;20033;-77
2022/10/20 09:40:14;;;;;;;2.85;1.08;;;17.60;78.40;;;;;;4978409;28;20046;-77
2022/10/20 09:42:47;;;;;;;2.70;1.17;;;17.60;78.50;;;;;;4978362;28;20662;-77
2022/10/20 09:45:21;;;;;;;2.40;1.58;;;17.60;78.10;;;;;;4978345;28;20074;-77
2022/10/20 09:47:51;;;;;;;2.35;1.10;;;17.70;78.00;;;;;;4978302;28;20034;-78
2022/10/20 09:50:19;;;;;;;;;;;17.80;78.00;;;;;;4978673;28;20405;-78
2022/10/20 09:52:48;;;;;;;2.20;1.13;;;17.80;77.60;;;;;;4991965;28;19909;-77
2022/10/20 09:55:47;;;;;;;2.20;1.23;;;17.80;77.90;;;;;;4990492;28;20039;-78
2022/10/20 09:58:19;;;;;;;3.70;1.48;;;17.90;77.80;;;;;;4987359;28;20065;-77
2022/10/20 10:00:54;;;;;;;5.13;1.50;;;17.90;77.50;;;;;;4978042;28;20031;-77
2022/10/20 10:03:24;;;;;;;2.95;1.65;;;18.00;78.00;;;;;;4995019;28;20037;-77
2022/10/20 10:05:58;;;;;;;4.45;1.45;;;18.10;77.80;;;;;;4996068;28;20022;-77
2022/10/20 10:08:29;;;;;;;2.45;1.23;;;18.10;77.80;;;;;;4997475;28;20050;-78
2022/10/20 10:11:13;;;;;;;4.93;1.73;;;18.20;77.90;;;;;;4996678;28;20397;-77
2022/10/20 10:13:42;;;;;;;2.53;1.23;;;18.20;77.50;;;;;;4997113;28;20058;-77
2022/10/20 10:16:13;;;;;;;3.45;1.02;;;18.20;77.50;;;;;;4995695;28;20485;-77
2022/10/20 10:18:39;;;;;;;2.67;0.93;;;18.30;77.90;;;;;;4997363;28;20573;-78
2022/10/20 10:21:07;;;;;;;3.13;1.15;;;18.30;77.80;;;;;;4984636;28;20035;-77
2022/10/20 10:23:51;;;;;;;5.18;1.80;;;18.40;78.00;;;;;;5002922;28;20098;-77
2022/10/20 10:26:46;;;;;;;5.68;1.20;;;18.50;78.10;;;;;;4997028;28;20025;-78
2022/10/20 10:29:25;;;;;;;5.47;1.20;;;18.60;78.20;;;;;;4996576;28;20026;-77
2022/10/20 10:31:57;;;;;;;7.10;1.20;;;18.60;78.30;;;;;;5011844;28;20026;-77
2022/10/20 10:34:43;;;;;;;6.88;1.48;;;18.70;78.20;;;;;;4996727;28;20080;-77
2022/10/20 10:37:14;;;;;;;3.75;0.80;;;18.70;78.30;;;;;;4996842;28;20065;-77
2022/10/20 10:39:41;;;;;;;2.38;1.10;;;18.70;78.70;;;;;;4996705;28;20654;-77
2022/10/20 10:42:29;;;;;;;4.82;1.55;;;18.80;78.60;;;;;;4995474;28;20045;-76
2022/10/20 10:45:16;;;;;;;4.53;1.20;;;18.80;78.30;;;;;;5011837;28;20038;-76
2022/10/20 10:47:54;;;;;;;7.75;1.30;;;18.80;79.00;;;;;;5014740;28;20037;-76
2022/10/20 10:50:36;;;;;;;5.63;1.17;;;18.90;78.40;;;;;;4999406;28;20026;-76
2022/10/20 10:53:36;;;;;;;5.30;1.10;;;19.00;77.90;;;;;;4996619;28;20065;-87
2022/10/20 10:56:11;;;;;;;7.43;1.57;;;19.00;77.60;;;;;;4982319;28;20409;-85
2022/10/20 10:58:56;;;;;;;8.07;1.38;;;19.00;77.50;;;;;;4977057;28;20027;-86
2022/10/20 11:01:46;;;;;;;6.03;1.27;;;19.10;77.30;;;;;;5006330;28;20046;-87
2022/10/20 11:04:11;;;;;;;9.00;1.58;;;19.10;77.30;;;;;;4996582;28;20043;-83
2022/10/20 11:06:49;;;;;;;4.90;1.10;;;19.20;77.50;;;;;;4996373;28;20027;-86
2022/10/20 11:09:30;;;;;;;8.18;1.60;;;19.20;77.10;;;;;;4995334;28;20109;-84
2022/10/20 11:12:08;;;;;;;5.55;1.30;;;19.30;77.00;;;;;;4992128;28;20034;-84
2022/10/20 11:14:52;;;;;;;5.25;1.52;;;19.30;76.90;;;;;;4995599;28;20046;-84
2022/10/20 11:17:20;;;;;;;4.78;1.70;;;19.40;77.00;;;;;;4996154;28;20062;-84
2022/10/20 11:20:17;;;;;;;6.05;1.30;;;19.40;76.60;;;;;;5011635;28;20074;-84
2022/10/20 11:23:10;;;;;;;4.05;1.63;;;19.40;76.70;;;;;;5004279;28;20028;-84
2022/10/20 11:25:39;;;;;;;3.95;1.23;;;19.50;75.90;;;;;;4998193;28;20061;-82
2022/10/20 11:28:27;;;;;;;4.85;1.45;;;19.50;75.50;;;;;;4996191;28;20034;-80
2022/10/20 11:30:56;;;;;;;3.55;1.80;;;19.60;75.50;;;;;;4996205;28;20030;-88
2022/10/20 11:33:26;;;;;;;7.20;1.48;;;19.70;75.20;;;;;;4978183;28;20123;-83
2022/10/20 11:36:24;;;;;;;4.80;1.67;;;19.70;74.90;;;;;;4975458;28;20414;-87
2022/10/20 11:38:55;;;;;;;10.88;1.80;;;19.70;74.50;;;;;;4977282;28;20034;-87
2022/10/20 11:41:42;;;;;;;2.53;1.50;;;19.80;74.30;;;;;;4975265;28;20031;-84
2022/10/20 11:44:20;;;;;;;5.47;1.40;;;19.80;74.40;;;;;;4981921;28;20023;-84
2022/10/20 11:47:24;;;;;;;4.85;1.80;;;19.90;74.40;;;;;;4995954;28;20035;-84
2022/10/20 11:49:51;;;;;;;9.95;2.65;;;19.90;74.10;;;;;;4993861;28;20042;-82
2022/10/20 11:52:44;;;;;;;7.63;2.28;;;20.00;74.30;;;;;;4995017;28;20547;-85
2022/10/20 11:55:26;;;;;;;6.63;1.75;;;19.90;73.50;;;;;;4999956;28;20046;-83
2022/10/20 11:58:16;;;;;;;3.00;1.38;;;19.80;73.00;;;;;;4979772;28;20035;-84
2022/10/20 12:01:06;;;;;;;3.13;1.17;;;19.70;73.00;;;;;;4980276;28;20031;-83
2022/10/20 12:04:07;;;;;;;7.07;1.55;;;19.70;73.30;;;;;;4988351;28;20105;-85
2022/10/20 12:07:00;;;;;;;5.68;1.30;;;19.60;73.50;;;;;;4958423;28;20023;-84
2022/10/20 12:10:07;;;;;;;3.63;1.08;;;19.70;73.20;;;;;;4997469;28;20089;-84
2022/10/20 12:12:56;;;;;;;2.88;1.00;;;19.70;73.80;;;;;;4946908;28;20054;-84
2022/10/20 12:15:24;;;;;;;3.40;1.23;;;19.80;73.70;;;;;;5014314;28;20102;-84
2022/10/20 12:17:52;;;;;;;4.40;1.70;;;19.80;74.00;;;;;;4998269;28;20030;-84
2022/10/20 12:20:21;;;;;;;3.42;1.30;;;19.80;73.90;;;;;;4999173;28;20037;-84
2022/10/20 12:22:52;;;;;;;2.58;0.90;;;19.90;74.30;;;;;;5023268;28;20026;-84
2022/10/20 12:25:23;;;;;;;8.63;1.40;;;19.90;74.20;;;;;;5000076;28;20100;-84
2022/10/20 12:28:23;;;;;;;3.05;1.05;;;20.00;73.70;;;;;;4979857;28;20113;-85
2022/10/20 12:30:59;;;;;;;3.60;0.90;;;20.00;73.40;;;;;;4995922;28;20054;-84
2022/10/20 12:33:34;;;;;;;3.42;1.10;;;20.10;73.20;;;;;;4998138;28;20038;-84
2022/10/20 12:36:18;;;;;;;5.40;1.20;;;20.20;73.40;;;;;;4980112;28;20031;-85
2022/10/20 12:38:46;;;;;;;4.03;0.73;;;20.30;73.20;;;;;;4979557;28;20050;-85
2022/10/20 12:41:24;;;;;;;4.70;1.08;;;20.30;73.50;;;;;;4979695;28;20102;-85
2022/10/20 12:43:59;;;;;;;2.40;0.57;;;20.30;73.40;;;;;;5007845;28;20026;-85
2022/10/20 12:46:30;;;;;;;1.42;0.73;;;20.30;72.70;;;;;;5013908;28;20105;-84
2022/10/20 12:49:01;;;;;;;3.70;1.17;;;20.30;72.70;;;;;;4999195;28;20515;-84
2022/10/20 12:51:51;;;;;;;5.38;1.00;;;20.30;73.40;;;;;;4998361;28;20022;-85
2022/10/20 12:54:39;;;;;;;2.97;0.80;;;20.60;72.70;;;;;;4998781;28;20525;-85
2022/10/20 12:57:26;;;;;;;3.08;0.88;;;20.80;72.30;;;;;;4998769;28;20088;-83
2022/10/20 12:59:52;;;;;;;3.40;1.02;;;20.80;71.30;;;;;;4979333;28;20501;-83
2022/10/20 13:02:22;;;;;;;3.55;0.85;;;20.90;71.80;;;;;;4978120;28;20097;-85
2022/10/20 13:05:02;;;;;;;3.17;1.02;;;21.00;71.90;;;;;;4992009;28;20031;-76
2022/10/20 13:07:48;;;;;;;2.00;0.80;;;21.00;71.40;;;;;;4998527;28;20039;-75